< < Back
Terminal Aerodrome Forecast


Current Version              Previous Versions:   1  2  3  4  5  6  7  8  9  

Terminal Aerodrome Forecast

492
FTUS42 KGSP 231447 AAA
TAFCLT
TAF AMD
KCLT 231447Z 2315/2412 34008KT P6SM SKC
     FM240000 33003KT P6SM FEW250=

Latest METAR

612
SAUS70 KWBC 241100 RRA
MTRCLT
METAR KCLT 241052Z 34005KT 10SM BKN220 06/05 A3005 RMK AO2 SLP174
T00610050 $


USA.gov is the U.S. government's official web portal to all federal, state and local government web resources and services.